Jump to content


FEDEX FLIGHT FX559 FLOWN ON 06-07-2017 BY CAPTAIN TYLER HANUS

Pilot StatsCaptain Tyler Hanus (LDP525) • 244.8 total hours • 53 total flights [View Logbook]
FLIGHT DETAILS
StatusReceived and approved on 2017-06-07 at 14:06:14
Origin AirportKansai Intl (RJBB) • Osaka, Japan (15 feet MSL)
Filed Flight PlanRJBB ITE V55 ROKKO Y384 KOMAT Y381 GOLDO Y19 AOMRI Y13 CHITO Y116 BISIV G583 ENM J179 SQA J501 TED J133 JOH J501 YAK NCA10 MITOM NCA34 YYD J569 GTF J13 BIL J151 OVR J41 LUKKY J46 ARG KMEM
Destination AirportMemphis Intl (KMEM) • Memphis, Tennessee, United States (341 feet MSL)
Alternate AirportNone Filed
AirlineFedEx
AircraftBoeing 777-200 Freighter (77F / B777-200F)
FS Aircraft UsedPMDG 777-FS2 FedEx Express
Cruising AltitudeFL330
Distance Flown5,925 nautical miles
Cargo Onboard125,400 lbs (92.40% full)
DEPARTURE DETAILS
Time Out06:58:06
Taxi Data748,427 lbs total with 311,227 lbs of fuel onboard
Takeoff Data07:07:38 (10 minutes after leaving gate/ramp) • 746,666 lbs total • 9° pitch at 199 knots
Departure METARRJBB 062000Z AUTO 21005KT 6000 -RA FEW024 SCT035 BKN039 20/17 Q1015 NOSIG
ARRIVAL DETAILS
Landing Data13:45:39 • 512,439 lbs total • 5° pitch doing 133 knots at a rate of -139.18 feet/minute with 74,440 lbs of fuel onboard
Time In13:52:36 (7 minutes after landing)
Ramp Weight511,640 lbs total
Total Fuel Used236,787 lbs
Total Block Time12:59:09 (13 hours) while 16 minutes were spent on the ground
Arrival METARKMEM 071754Z 03013KT 10SM FEW050 BKN250 27/11 A2995 RMK AO2 PK WND 36026/1740 SLP138 T02670106 10272 20194 58002
MISCELLANEOUS DETAILS
LiveDISPATCH Version4.8.3.1
FS Version
FSUIPC Version4.96
OS VersionWindows 7 32-bit
Screen Resolution1360 x 768
Pilot's CommentsNo Comments Reported
FLIGHT MAP